Grande Europa — ICGE — position and weather

sailwx.info

Track history (hours):
 
Tides and Currents Weather Stations Pressure Air Temp Water Temp Dewpoint Dewpoint Depression Visibility Wind Speed Wind Dir Waves Ship Positions

Grande Europa

Last reported at 2015-May-30 13:28 UTC. Time now 2015-May-30 14:29 UTC.
Position N 58°01' E 011°42'.

Length 183 m; draft 8 m.

Type: Ship (hazmat cat A). MMSI: 247206000.

Date/timePositionNaut miles runAvg speedWind from/ knotsBaromVisibWave heightAir tempDewpointWater temp
2015-May-30 13:28N 58°01' E 011°42'0 0.0
2015-May-30 12:28N 58°01' E 011°42'0 0.0
2015-May-30 11:16N 58°01' E 011°42'0 0.0
2015-May-30 10:28N 58°01' E 011°42'0 0.0
2015-May-30 09:28N 58°01' E 011°42'0 0.0
2015-May-30 08:28N 58°01' E 011°42'0 0.0
2015-May-30 07:28N 58°01' E 011°42'0 0.0
2015-May-30 06:31N 58°01' E 011°42'0 0.2
2015-May-30 05:33N 58°01' E 011°42'9 9.4
2015-May-30 04:34N 57°53' E 011°31'1110.8
2015-May-30 03:34N 57°50' E 011°11'1515.3
2015-May-30 02:33N 57°51' E 010°42'17515.8
2015-May-29 15:32N 55°36' E 007°20'1616.0
2015-May-29 14:33N 55°26' E 007°42'1615.7
2015-May-29 13:33N 55°25' E 008°09'1010.1
2015-May-29 12:33N 55°28' E 008°26'0 0.3
2015-May-29 11:15N 55°28' E 008°27'0 0.0
2015-May-29 10:33N 55°28' E 008°27'0 0.0
2015-May-29 09:21N 55°28' E 008°27'0 0.0
2015-May-29 08:24N 55°28' E 008°27'0 0.0
2015-May-29 07:12N 55°28' E 008°27'0 0.0
2015-May-29 06:27N 55°28' E 008°27'0 0.0
2015-May-29 05:27N 55°28' E 008°27'0 0.0
2015-May-29 04:15N 55°28' E 008°27'0 0.5
2015-May-29 03:33N 55°28' E 008°26'6 5.9
2015-May-29 02:33N 55°27' E 008°16'8 8.2
2015-May-29 01:33N 55°21' E 008°05'1414.2
2015-May-29 00:34N 55°13' E 007°46'1615.6
2015-May-28 23:34N 55°03' E 007°24'1615.7
2015-May-28 22:34N 54°56' E 006°60'1615.6
2015-May-28 21:31N 54°48' E 006°35'4615.3
2015-May-28 18:30N 54°25' E 005°27'1515.4
2015-May-28 17:30N 54°17' E 005°04'1715.2
2015-May-28 16:23N 54°06' E 004°42'16914.3
2015-May-28 04:33N 51°39' E 002°25'1313.0
2015-May-28 03:34N 51°29' E 002°11'1313.0
2015-May-28 02:33N 51°19' E 001°58'1313.2
2015-May-28 01:33N 51°09' E 001°44'1313.3
2015-May-28 00:33N 50°59' E 001°30'1413.9
2015-May-27 23:33N 50°46' E 001°23'1313.4
2015-May-27 22:33N 50°36' E 001°09'1413.5
2015-May-27 21:33N 50°30' E 000°50'1513.7
2015-May-27 20:28N 50°26' E 000°28'3013.9
2015-May-27 18:19N 50°17' W 000°17'1414.5
2015-May-27 17:22N 50°13' W 000°38'1615.2
2015-May-27 16:18N 50°09' W 001°02'1215.8
2015-May-27 15:34N 50°06' W 001°20'1616.1
2015-May-27 14:33N 50°01' W 001°44'16614.7
2015-May-27 03:16N 49°58' W 006°02'1715.6
2015-May-27 02:12N 50°15' W 006°02'1413.6
2015-May-27 01:10N 50°26' W 005°51'915.0
2015-May-27 00:33N 50°32' W 005°40'1514.8
2015-May-26 23:33N 50°42' W 005°22'9014.0
2015-May-26 17:08N 51°21' W 003°13'712.9
2015-May-26 16:33N 51°25' W 003°03'1313.0
2015-May-26 15:34N 51°30' W 002°44'0 0.5
2015-May-26 14:32N 51°30' W 002°43'0 0.0
2015-May-26 13:32N 51°30' W 002°43'0 0.0
2015-May-26 12:32N 51°30' W 002°43'0 0.0
2015-May-26 11:32N 51°30' W 002°43'0 0.0
2015-May-26 10:32N 51°30' W 002°43'0 0.0
2015-May-26 09:32N 51°30' W 002°43'0 0.0
2015-May-26 08:32N 51°30' W 002°43'0 0.0
2015-May-26 07:32N 51°30' W 002°43'0 0.0
2015-May-26 06:32N 51°30' W 002°43'0 0.0
2015-May-26 05:32N 51°30' W 002°43'0 0.0
2015-May-26 04:32N 51°30' W 002°43'0 0.0
2015-May-26 03:32N 51°30' W 002°43'0 0.0
2015-May-26 02:32N 51°30' W 002°43'0 0.0
2015-May-26 01:32N 51°30' W 002°43'0 0.0
2015-May-26 00:32N 51°30' W 002°43'0 0.0
2015-May-25 23:32N 51°30' W 002°43'0 0.0
2015-May-25 22:32N 51°30' W 002°43'0 0.4
2015-May-25 21:33N 51°30' W 002°43'7 7.1
2015-May-25 20:31N 51°28' W 002°55'9010.7
2015-May-25 12:05N 50°49' W 005°05'916.7
2015-May-25 11:33N 50°44' W 005°17'1818.0
2015-May-25 10:33N 50°33' W 005°40'59716.4
2015-May-23 22:13N 41°03' W 009°51'3315.5
2015-May-23 20:04N 40°29' W 009°50'915.8
2015-May-23 19:31N 40°20' W 009°50'1515.9
2015-May-23 18:33N 40°05' W 009°51'1616.0
2015-May-23 17:33N 39°49' W 009°51'1615.8
2015-May-23 16:33N 39°33' W 009°52'1615.6
2015-May-23 15:33N 39°18' W 009°52'1515.5
2015-May-23 14:33N 39°02' W 009°52'1515.1
2015-May-23 13:33N 38°47' W 009°52'1515.0
2015-May-23 12:33N 38°32' W 009°49'1515.0
2015-May-23 11:33N 38°18' W 009°45'1514.8
2015-May-23 10:33N 38°03' W 009°41'1515.4
2015-May-23 09:33N 37°48' W 009°36'1616.2
2015-May-23 08:33N 37°33' W 009°31'1716.6
2015-May-23 07:33N 37°17' W 009°26'1716.8
2015-May-23 06:33N 37°00' W 009°21'1716.8
2015-May-23 05:31N 36°45' W 009°10'1717.6
2015-May-23 04:33N 36°39' W 008°50'1818.1
2015-May-23 03:33N 36°33' W 008°29'1818.0
2015-May-23 02:33N 36°27' W 008°08'1818.3
2015-May-23 01:33N 36°22' W 007°46'1918.7
2015-May-23 00:33N 36°17' W 007°24'8917.2
2015-May-22 19:22N 35°57' W 005°36'1316.3
2015-May-22 18:33N 36°01' W 005°21'11317.6
2015-May-22 12:08N 36°19' W 003°02'1018.4
2015-May-22 11:33N 36°21' W 002°49'1918.6
2015-May-22 10:31N 36°23' W 002°26'2218.0
2015-May-22 09:16N 36°32' W 001°60'1518.2
2015-May-22 08:28N 36°43' W 001°47'1818.4
2015-May-22 07:29N 36°54' W 001°30'3518.2
2015-May-22 05:33N 37°18' W 000°57'1818.1
2015-May-22 04:33N 37°30' W 000°40'1818.2
2015-May-22 03:33N 37°44' W 000°27'1818.3
2015-May-22 02:33N 37°59' W 000°14'51116.5
2015-May-20 19:33N 43°44' E 008°06'1818.1
2015-May-20 18:33N 43°59' E 008°21'1818.0
2015-May-20 17:33N 44°15' E 008°31'4 3.6
2015-May-20 16:32N 44°19' E 008°30'0 0.0
2015-May-20 15:32N 44°19' E 008°30'0 0.0
2015-May-20 14:26N 44°19' E 008°30'0 0.0
2015-May-20 13:29N 44°19' E 008°30'  
Track history (hours):
 
Tides and Currents Weather Stations Pressure Air Temp Water Temp Dewpoint Dewpoint Depression Visibility Wind Speed Wind Dir Waves Ship Positions

Grande Europa

Last reported at 2015-May-30 13:28 UTC. Time now 2015-May-30 14:29 UTC.
Position N 58°01' E 011°42'.

Length 183 m; draft 8 m.

Type: Ship (hazmat cat A). MMSI: 247206000.

Date/timePositionNaut miles runAvg speedWind from/ knotsBaromVisibWave heightAir tempDewpointWater temp
2015-May-30 13:28N 58°01' E 011°42'0 0.0
2015-May-30 12:28N 58°01' E 011°42'0 0.0
2015-May-30 11:16N 58°01' E 011°42'0 0.0
2015-May-30 10:28N 58°01' E 011°42'0 0.0
2015-May-30 09:28N 58°01' E 011°42'0 0.0
2015-May-30 08:28N 58°01' E 011°42'0 0.0
2015-May-30 07:28N 58°01' E 011°42'0 0.0
2015-May-30 06:31N 58°01' E 011°42'0 0.2
2015-May-30 05:33N 58°01' E 011°42'9 9.4
2015-May-30 04:34N 57°53' E 011°31'1110.8
2015-May-30 03:34N 57°50' E 011°11'1515.3
2015-May-30 02:33N 57°51' E 010°42'17515.8
2015-May-29 15:32N 55°36' E 007°20'1616.0
2015-May-29 14:33N 55°26' E 007°42'1615.7
2015-May-29 13:33N 55°25' E 008°09'1010.1
2015-May-29 12:33N 55°28' E 008°26'0 0.3
2015-May-29 11:15N 55°28' E 008°27'0 0.0
2015-May-29 10:33N 55°28' E 008°27'0 0.0
2015-May-29 09:21N 55°28' E 008°27'0 0.0
2015-May-29 08:24N 55°28' E 008°27'0 0.0
2015-May-29 07:12N 55°28' E 008°27'0 0.0
2015-May-29 06:27N 55°28' E 008°27'0 0.0
2015-May-29 05:27N 55°28' E 008°27'0 0.0
2015-May-29 04:15N 55°28' E 008°27'0 0.5
2015-May-29 03:33N 55°28' E 008°26'6 5.9
2015-May-29 02:33N 55°27' E 008°16'8 8.2
2015-May-29 01:33N 55°21' E 008°05'1414.2
2015-May-29 00:34N 55°13' E 007°46'1615.6
2015-May-28 23:34N 55°03' E 007°24'1615.7
2015-May-28 22:34N 54°56' E 006°60'1615.6
2015-May-28 21:31N 54°48' E 006°35'4615.3
2015-May-28 18:30N 54°25' E 005°27'1515.4
2015-May-28 17:30N 54°17' E 005°04'1715.2
2015-May-28 16:23N 54°06' E 004°42'16914.3
2015-May-28 04:33N 51°39' E 002°25'1313.0
2015-May-28 03:34N 51°29' E 002°11'1313.0
2015-May-28 02:33N 51°19' E 001°58'1313.2
2015-May-28 01:33N 51°09' E 001°44'1313.3
2015-May-28 00:33N 50°59' E 001°30'1413.9
2015-May-27 23:33N 50°46' E 001°23'1313.4
2015-May-27 22:33N 50°36' E 001°09'1413.5
2015-May-27 21:33N 50°30' E 000°50'1513.7
2015-May-27 20:28N 50°26' E 000°28'3013.9
2015-May-27 18:19N 50°17' W 000°17'1414.5
2015-May-27 17:22N 50°13' W 000°38'1615.2
2015-May-27 16:18N 50°09' W 001°02'1215.8
2015-May-27 15:34N 50°06' W 001°20'1616.1
2015-May-27 14:33N 50°01' W 001°44'16614.7
2015-May-27 03:16N 49°58' W 006°02'1715.6
2015-May-27 02:12N 50°15' W 006°02'1413.6
2015-May-27 01:10N 50°26' W 005°51'915.0
2015-May-27 00:33N 50°32' W 005°40'1514.8
2015-May-26 23:33N 50°42' W 005°22'9014.0
2015-May-26 17:08N 51°21' W 003°13'712.9
2015-May-26 16:33N 51°25' W 003°03'1313.0
2015-May-26 15:34N 51°30' W 002°44'0 0.5
2015-May-26 14:32N 51°30' W 002°43'0 0.0
2015-May-26 13:32N 51°30' W 002°43'0 0.0
2015-May-26 12:32N 51°30' W 002°43'0 0.0
2015-May-26 11:32N 51°30' W 002°43'0 0.0
2015-May-26 10:32N 51°30' W 002°43'0 0.0
2015-May-26 09:32N 51°30' W 002°43'0 0.0
2015-May-26 08:32N 51°30' W 002°43'0 0.0
2015-May-26 07:32N 51°30' W 002°43'0 0.0
2015-May-26 06:32N 51°30' W 002°43'0 0.0
2015-May-26 05:32N 51°30' W 002°43'0 0.0
2015-May-26 04:32N 51°30' W 002°43'0 0.0
2015-May-26 03:32N 51°30' W 002°43'0 0.0
2015-May-26 02:32N 51°30' W 002°43'0 0.0
2015-May-26 01:32N 51°30' W 002°43'0 0.0
2015-May-26 00:32N 51°30' W 002°43'0 0.0
2015-May-25 23:32N 51°30' W 002°43'0 0.0
2015-May-25 22:32N 51°30' W 002°43'0 0.4
2015-May-25 21:33N 51°30' W 002°43'7 7.1
2015-May-25 20:31N 51°28' W 002°55'9010.7
2015-May-25 12:05N 50°49' W 005°05'916.7
2015-May-25 11:33N 50°44' W 005°17'1818.0
2015-May-25 10:33N 50°33' W 005°40'59716.4
2015-May-23 22:13N 41°03' W 009°51'3315.5
2015-May-23 20:04N 40°29' W 009°50'915.8
2015-May-23 19:31N 40°20' W 009°50'1515.9
2015-May-23 18:33N 40°05' W 009°51'1616.0
2015-May-23 17:33N 39°49' W 009°51'1615.8
2015-May-23 16:33N 39°33' W 009°52'1615.6
2015-May-23 15:33N 39°18' W 009°52'1515.5
2015-May-23 14:33N 39°02' W 009°52'1515.1
2015-May-23 13:33N 38°47' W 009°52'1515.0
2015-May-23 12:33N 38°32' W 009°49'1515.0
2015-May-23 11:33N 38°18' W 009°45'1514.8
2015-May-23 10:33N 38°03' W 009°41'1515.4
2015-May-23 09:33N 37°48' W 009°36'1616.2
2015-May-23 08:33N 37°33' W 009°31'1716.6
2015-May-23 07:33N 37°17' W 009°26'1716.8
2015-May-23 06:33N 37°00' W 009°21'1716.8
2015-May-23 05:31N 36°45' W 009°10'1717.6
2015-May-23 04:33N 36°39' W 008°50'1818.1
2015-May-23 03:33N 36°33' W 008°29'1818.0
2015-May-23 02:33N 36°27' W 008°08'1818.3
2015-May-23 01:33N 36°22' W 007°46'1918.7
2015-May-23 00:33N 36°17' W 007°24'8917.2
2015-May-22 19:22N 35°57' W 005°36'1316.3
2015-May-22 18:33N 36°01' W 005°21'11317.6
2015-May-22 12:08N 36°19' W 003°02'1018.4
2015-May-22 11:33N 36°21' W 002°49'1918.6
2015-May-22 10:31N 36°23' W 002°26'2218.0
2015-May-22 09:16N 36°32' W 001°60'1518.2
2015-May-22 08:28N 36°43' W 001°47'1818.4
2015-May-22 07:29N 36°54' W 001°30'3518.2
2015-May-22 05:33N 37°18' W 000°57'1818.1
2015-May-22 04:33N 37°30' W 000°40'1818.2
2015-May-22 03:33N 37°44' W 000°27'1818.3
2015-May-22 02:33N 37°59' W 000°14'51116.5
2015-May-20 19:33N 43°44' E 008°06'1818.1
2015-May-20 18:33N 43°59' E 008°21'1818.0
2015-May-20 17:33N 44°15' E 008°31'4 3.6
2015-May-20 16:32N 44°19' E 008°30'0 0.0
2015-May-20 15:32N 44°19' E 008°30'0 0.0
2015-May-20 14:26N 44°19' E 008°30'0 0.0
2015-May-20 13:29N 44°19' E 008°30'  

Dump ship's entire track history